Time;durP1;ratioP1;P1;durP2;ratioP2;P2;SDS_P1;SDS_P2;PMS_P1;PMS_P2;Temp;Humidity;BMP_temperature;BMP_pressure;BME280_temperature;BME280_humidity;BME280_pressure;Samples;Min_cycle;Max_cycle;Signal;HPM_P1;HPM_P2
2023/11/26 00:00:14;;;;;;;13.80;2.50;;;;;;;2.73;100.00;101758.78;5094495;28;20126;-74
2023/11/26 00:02:40;;;;;;;13.10;2.28;;;;;;;2.90;100.00;101758.94;5094448;28;20491;-74
2023/11/26 00:05:05;;;;;;;17.88;2.30;;;;;;;3.01;100.00;101755.81;5094582;28;20044;-75
2023/11/26 00:07:31;;;;;;;18.27;2.00;;;;;;;3.09;100.00;101748.47;5094265;28;20037;-73
2023/11/26 00:09:56;;;;;;;13.88;2.15;;;;;;;3.13;100.00;101752.63;5076245;28;20468;-74
2023/11/26 00:12:23;;;;;;;10.68;2.22;;;;;;;3.14;100.00;101746.47;5093983;28;20063;-74
2023/11/26 00:14:49;;;;;;;16.75;2.13;;;;;;;3.11;100.00;101740.50;5094088;28;20463;-74
2023/11/26 00:17:14;;;;;;;15.88;1.75;;;;;;;3.06;100.00;101743.34;5094325;28;20060;-75
2023/11/26 00:19:40;;;;;;;12.07;1.83;;;;;;;3.02;100.00;101736.50;5075515;28;20039;-74
2023/11/26 00:22:06;;;;;;;10.30;1.45;;;;;;;3.01;100.00;101734.78;5075754;28;20115;-75
2023/11/26 00:24:31;;;;;;;10.65;1.67;;;;;;;2.97;100.00;101730.56;5094506;28;20161;-77
2023/11/26 00:26:57;;;;;;;9.52;1.98;;;;;;;2.86;100.00;101723.19;5093979;28;20051;-75
2023/11/26 00:29:22;;;;;;;12.52;1.92;;;;;;;2.74;100.00;101716.69;5094040;28;20027;-75
2023/11/26 00:31:49;;;;;;;7.68;1.70;;;;;;;2.62;100.00;101722.47;5093840;28;20090;-75
2023/11/26 00:34:14;;;;;;;3.47;1.20;;;;;;;2.48;100.00;101720.44;5094277;28;20059;-75
2023/11/26 00:36:39;;;;;;;10.68;1.92;;;;;;;2.34;100.00;101718.38;5094084;28;20121;-74
2023/11/26 00:39:05;;;;;;;7.88;1.30;;;;;;;2.20;100.00;101712.88;5093641;28;20055;-74
2023/11/26 00:41:30;;;;;;;9.15;1.55;;;;;;;2.12;100.00;101710.56;5094288;28;20058;-75
2023/11/26 00:43:55;;;;;;;4.95;1.45;;;;;;;2.09;100.00;101716.78;5075298;28;20085;-75
2023/11/26 00:46:21;;;;;;;8.52;1.40;;;;;;;2.10;100.00;101715.84;5094229;28;20115;-74
2023/11/26 00:48:46;;;;;;;7.38;1.45;;;;;;;2.18;100.00;101720.81;5093559;28;20032;-79
2023/11/26 00:51:22;;;;;;;4.55;1.52;;;;;;;2.33;100.00;101728.94;5093592;28;20035;-75
2023/11/26 00:53:51;;;;;;;12.63;2.20;;;;;;;2.51;100.00;101735.19;5093442;28;20032;-77
2023/11/26 00:56:16;;;;;;;11.50;1.90;;;;;;;2.65;100.00;101736.31;5093304;28;20440;-75
2023/11/26 00:58:42;;;;;;;8.43;1.60;;;;;;;2.77;100.00;101742.81;5093452;28;20116;-75
2023/11/26 01:01:07;;;;;;;8.27;1.60;;;;;;;2.90;100.00;101744.94;5093360;28;20456;-76
2023/11/26 01:03:32;;;;;;;9.85;1.45;;;;;;;3.03;100.00;101754.00;5075449;28;20059;-75
2023/11/26 01:05:58;;;;;;;13.65;2.35;;;;;;;3.14;100.00;101743.00;5093617;28;20043;-75
2023/11/26 01:08:24;;;;;;;16.27;1.92;;;;;;;3.26;100.00;101738.97;5093143;28;20061;-74
2023/11/26 01:10:50;;;;;;;12.88;1.65;;;;;;;3.37;100.00;101741.09;5092972;28;20465;-77
2023/11/26 01:13:15;;;;;;;9.35;1.65;;;;;;;3.42;100.00;101736.47;5093355;28;20062;-74
2023/11/26 01:15:40;;;;;;;6.95;1.25;;;;;;;3.48;100.00;101738.84;5075109;28;20426;-73
2023/11/26 01:18:06;;;;;;;7.18;1.10;;;;;;;3.49;100.00;101737.88;5093239;28;20071;-73
2023/11/26 01:20:31;;;;;;;9.18;1.42;;;;;;;3.49;100.00;101736.13;5093296;28;20529;-74
2023/11/26 01:22:56;;;;;;;11.55;1.48;;;;;;;3.50;100.00;101739.59;5093226;28;20429;-75
2023/11/26 01:25:22;;;;;;;10.18;1.27;;;;;;;3.48;100.00;101739.69;5093785;28;20044;-74
2023/11/26 01:27:47;;;;;;;11.02;1.70;;;;;;;3.53;100.00;101757.88;5094033;28;20425;-74
2023/11/26 01:30:13;;;;;;;4.53;1.13;;;;;;;3.55;100.00;101763.91;5092838;28;20036;-74
2023/11/26 01:32:39;;;;;;;7.35;1.83;;;;;;;3.59;100.00;101754.97;5077960;28;20081;-74
2023/11/26 01:35:05;;;;;;;13.93;1.95;;;;;;;3.66;100.00;101745.00;5097268;28;20067;-74
2023/11/26 01:37:33;;;;;;;16.48;2.38;;;;;;;3.69;100.00;101747.50;5097429;28;20043;-73
2023/11/26 01:39:58;;;;;;;8.43;1.50;;;;;;;3.68;100.00;101740.53;5096952;28;20085;-74
2023/11/26 01:42:23;;;;;;;9.18;1.48;;;;;;;3.65;100.00;101736.25;5097348;28;20111;-74
2023/11/26 01:44:49;;;;;;;8.57;1.48;;;;;;;3.60;100.00;101738.25;5096900;28;20056;-74
2023/11/26 01:47:14;;;;;;;11.23;1.70;;;;;;;3.52;100.00;101738.63;5061686;28;20043;-74
2023/11/26 01:49:40;;;;;;;11.00;1.42;;;;;;;3.47;100.00;101735.31;5097379;28;20028;-74
2023/11/26 01:52:08;;;;;;;8.23;1.92;;;;;;;3.41;100.00;101734.78;5097295;28;20032;-74
2023/11/26 01:54:41;;;;;;;13.13;2.08;;;;;;;3.33;100.00;101733.34;5096736;28;20063;-73
2023/11/26 01:57:08;;;;;;;11.88;1.55;;;;;;;3.24;100.00;101730.25;5097016;28;20043;-74
2023/11/26 01:59:34;;;;;;;10.82;2.08;;;;;;;3.18;100.00;101741.94;5096719;28;20035;-74
2023/11/26 02:01:59;;;;;;;9.00;1.90;;;;;;;3.10;100.00;101744.03;5096547;28;20031;-75
2023/11/26 02:04:25;;;;;;;7.28;1.63;;;;;;;2.99;100.00;101737.47;5096450;28;20457;-73
2023/11/26 02:06:53;;;;;;;17.77;1.77;;;;;;;2.92;100.00;101732.56;5096527;28;20126;-74
2023/11/26 02:09:19;;;;;;;10.93;1.75;;;;;;;2.83;100.00;101739.09;5096113;28;20035;-74
2023/11/26 02:11:45;;;;;;;13.10;1.77;;;;;;;2.76;100.00;101740.25;5096994;28;20096;-74
2023/11/26 02:14:11;;;;;;;7.50;1.30;;;;;;;2.70;100.00;101732.66;5096232;28;20083;-74
2023/11/26 02:16:37;;;;;;;5.10;1.63;;;;;;;2.66;100.00;101737.19;5096645;28;20385;-74
2023/11/26 02:19:31;;;;;;;14.35;2.17;;;;;;;2.65;100.00;101740.72;5096735;28;20114;-74
2023/11/26 02:21:56;;;;;;;15.85;2.38;;;;;;;2.65;100.00;101738.94;5088567;28;20063;-74
2023/11/26 02:24:28;;;;;;;13.88;2.15;;;;;;;2.68;100.00;101740.59;5095848;28;20039;-73
2023/11/26 02:26:54;;;;;;;13.75;2.53;;;;;;;2.69;100.00;101737.06;5096424;28;20040;-74
2023/11/26 02:29:19;;;;;;;9.02;1.70;;;;;;;2.70;100.00;101740.53;5061223;28;20035;-74
2023/11/26 02:31:45;;;;;;;14.60;2.13;;;;;;;2.75;100.00;101747.31;5095826;28;20028;-73
2023/11/26 02:34:10;;;;;;;11.07;1.92;;;;;;;2.84;100.00;101740.81;5095896;28;20063;-73
2023/11/26 02:36:35;;;;;;;16.50;1.90;;;;;;;2.94;100.00;101738.59;5095696;28;20498;-73
2023/11/26 02:39:00;;;;;;;9.18;1.85;;;;;;;2.99;100.00;101737.47;5077982;28;20035;-76
2023/11/26 02:41:26;;;;;;;13.82;2.30;;;;;;;3.04;100.00;101725.91;5077391;28;20468;-73
2023/11/26 02:43:52;;;;;;;8.82;1.75;;;;;;;3.08;100.00;101728.34;5095934;28;20071;-72
2023/11/26 02:46:17;;;;;;;9.10;2.00;;;;;;;3.07;100.00;101725.78;5095697;28;20032;-73
2023/11/26 02:48:43;;;;;;;12.88;2.33;;;;;;;3.02;100.00;101720.72;5096127;28;20047;-74
2023/11/26 02:51:08;;;;;;;10.15;2.10;;;;;;;2.98;100.00;101720.00;5095360;28;20043;-74
2023/11/26 02:53:33;;;;;;;7.70;1.60;;;;;;;2.95;100.00;101720.13;5095673;28;20058;-74
2023/11/26 02:55:59;;;;;;;8.20;1.58;;;;;;;2.93;100.00;101729.03;5077363;28;20052;-74
2023/11/26 02:58:24;;;;;;;12.25;1.92;;;;;;;2.92;100.00;101724.69;5095514;28;20080;-73
2023/11/26 03:00:51;;;;;;;13.65;2.30;;;;;;;2.91;100.00;101728.22;5095565;28;20078;-73
2023/11/26 03:03:19;;;;;;;7.35;1.90;;;;;;;2.93;100.00;101721.16;5095722;28;20493;-74
2023/11/26 03:05:50;;;;;;;7.32;1.95;;;;;;;2.94;100.00;101721.06;5095114;28;20403;-73
2023/11/26 03:08:21;;;;;;;10.65;1.85;;;;;;;2.94;100.00;101723.69;5095448;28;20472;-73
2023/11/26 03:13:36;;;;;;;13.65;2.25;;;;;;;2.93;100.00;101715.88;5080334;28;20110;-73
2023/11/26 03:16:11;;;;;;;9.88;2.63;;;;;;;2.90;100.00;101719.50;5095201;28;20035;-73
2023/11/26 03:18:36;;;;;;;11.30;2.60;;;;;;;2.89;100.00;101728.28;5095555;28;20086;-73
2023/11/26 03:21:02;;;;;;;11.48;1.85;;;;;;;2.87;100.00;101716.16;5077166;28;20027;-74
2023/11/26 03:23:27;;;;;;;11.55;2.22;;;;;;;2.88;100.00;101721.34;5095374;28;20425;-73
2023/11/26 03:25:53;;;;;;;10.32;1.88;;;;;;;2.87;100.00;101716.16;5095312;28;20032;-73
2023/11/26 03:28:21;;;;;;;11.23;2.25;;;;;;;2.85;100.00;101721.47;5094981;28;20032;-73
2023/11/26 03:30:47;;;;;;;7.63;1.77;;;;;;;2.83;100.00;101721.53;5095577;28;20036;-73
2023/11/26 03:33:16;;;;;;;8.38;1.90;;;;;;;2.79;100.00;101712.09;5095444;28;20043;-74
2023/11/26 03:35:43;;;;;;;7.95;2.22;;;;;;;2.76;100.00;101716.59;5076615;28;20043;-73
2023/11/26 03:38:08;;;;;;;7.43;1.60;;;;;;;2.67;100.00;101714.38;5095038;28;20035;-77
2023/11/26 03:40:34;;;;;;;9.15;1.92;;;;;;;2.62;100.00;101720.69;5094663;28;20036;-74
2023/11/26 03:42:59;;;;;;;5.93;1.92;;;;;;;2.55;100.00;101715.78;5094740;28;20032;-74
2023/11/26 03:45:25;;;;;;;9.80;1.90;;;;;;;2.50;100.00;101720.38;5094505;28;20486;-73
2023/11/26 03:47:50;;;;;;;9.80;1.65;;;;;;;2.47;100.00;101719.56;5094731;28;20028;-74
2023/11/26 03:50:16;;;;;;;7.20;1.83;;;;;;;2.43;100.00;101717.16;5094601;28;20061;-75
2023/11/26 03:52:41;;;;;;;10.48;2.08;;;;;;;2.46;100.00;101722.25;5094191;28;20492;-74
2023/11/26 03:55:07;;;;;;;8.27;1.95;;;;;;;2.47;100.00;101719.56;5071805;28;20080;-73
2023/11/26 03:57:33;;;;;;;8.98;2.22;;;;;;;2.50;100.00;101720.38;5074303;28;20070;-74
2023/11/26 04:00:01;;;;;;;11.25;1.67;;;;;;;2.58;100.00;101728.78;5074299;28;20036;-73
2023/11/26 04:02:26;;;;;;;10.70;2.03;;;;;;;2.67;100.00;101731.00;5074634;28;20028;-74
2023/11/26 04:04:52;;;;;;;18.45;2.65;;;;;;;2.80;100.00;101729.53;5074060;28;20483;-72
2023/11/26 04:07:18;;;;;;;14.05;1.88;;;;;;;3.00;100.00;101738.31;5072517;28;20388;-74
2023/11/26 04:09:45;;;;;;;13.93;1.73;;;;;;;3.18;100.00;101736.69;5073779;28;20090;-74
2023/11/26 04:12:10;;;;;;;16.67;2.00;;;;;;;3.26;100.00;101729.28;5073740;28;20117;-74
2023/11/26 04:14:36;;;;;;;15.10;1.95;;;;;;;3.33;100.00;101722.81;5073497;28;20467;-74
2023/11/26 04:17:01;;;;;;;9.63;1.30;;;;;;;3.35;100.00;101725.38;5074084;28;20028;-74
2023/11/26 04:19:27;;;;;;;10.75;1.00;;;;;;;3.33;100.00;101725.44;5073408;28;20032;-74
2023/11/26 04:21:53;;;;;;;9.48;1.10;;;;;;;3.31;100.00;101732.56;5073809;28;20029;-74
2023/11/26 04:24:18;;;;;;;9.02;1.20;;;;;;;3.26;100.00;101729.28;5073605;28;20492;-73
2023/11/26 04:26:44;;;;;;;12.70;1.10;;;;;;;3.25;100.00;101729.34;5072721;28;20477;-73
2023/11/26 04:29:09;;;;;;;11.90;1.55;;;;;;;3.25;100.00;101742.50;5073557;28;20033;-74
2023/11/26 04:31:34;;;;;;;4.35;1.30;;;;;;;3.23;100.00;101734.69;5073383;28;20060;-72
2023/11/26 04:34:04;;;;;;;3.63;1.45;;;;;;;3.21;100.00;101731.28;5073681;28;20040;-73
2023/11/26 04:36:30;;;;;;;4.10;1.30;;;;;;;3.19;100.00;101727.84;5073742;28;20119;-73
2023/11/26 04:38:55;;;;;;;15.43;1.48;;;;;;;3.16;100.00;101736.75;5073478;28;20128;-73
2023/11/26 04:41:21;;;;;;;8.77;1.45;;;;;;;3.15;100.00;101734.16;5073454;28;20037;-73
2023/11/26 04:43:47;;;;;;;7.40;1.23;;;;;;;3.11;100.00;101733.47;5073901;28;20062;-73
2023/11/26 04:46:15;;;;;;;9.57;1.30;;;;;;;3.09;100.00;101730.06;5073655;28;20033;-73
2023/11/26 04:48:42;;;;;;;4.93;1.02;;;;;;;3.06;100.00;101732.81;5073847;28;20033;-73
2023/11/26 04:51:08;;;;;;;7.70;1.25;;;;;;;3.03;100.00;101727.72;5072212;28;20036;-74
2023/11/26 04:53:33;;;;;;;5.82;1.38;;;;;;;2.99;100.00;101736.66;5072980;28;20044;-73
2023/11/26 04:55:59;;;;;;;15.60;1.45;;;;;;;2.97;100.00;101730.56;5071831;28;20053;-74
2023/11/26 04:58:25;;;;;;;6.40;1.40;;;;;;;2.93;100.00;101723.78;5073560;28;20060;-74
2023/11/26 05:00:51;;;;;;;5.97;1.27;;;;;;;2.92;100.00;101720.28;5071972;28;20032;-72
2023/11/26 05:03:17;;;;;;;7.03;1.30;;;;;;;2.93;100.00;101726.41;5072946;28;20051;-74
2023/11/26 05:05:43;;;;;;;7.05;1.40;;;;;;;2.95;100.00;101732.44;5073318;28;20379;-74
2023/11/26 05:08:09;;;;;;;4.20;0.88;;;;;;;3.00;100.00;101730.44;5072027;28;20124;-73
2023/11/26 05:10:35;;;;;;;13.10;1.83;;;;;;;3.03;100.00;101732.97;5073065;28;20032;-72
2023/11/26 05:13:00;;;;;;;6.88;1.10;;;;;;;3.08;100.00;101724.88;5073427;28;20063;-73
2023/11/26 05:15:26;;;;;;;7.63;1.48;;;;;;;3.11;100.00;101741.34;5073317;28;20068;-74
2023/11/26 05:17:52;;;;;;;11.32;1.63;;;;;;;3.13;100.00;101746.53;5072266;28;20094;-73
2023/11/26 05:20:18;;;;;;;9.55;1.33;;;;;;;3.20;100.00;101749.75;5073168;28;20033;-73
2023/11/26 05:22:44;;;;;;;5.75;1.20;;;;;;;3.22;100.00;101740.00;5073034;28;20032;-74
2023/11/26 05:25:09;;;;;;;7.22;1.48;;;;;;;3.27;100.00;101743.28;5071877;28;20047;-73
2023/11/26 05:27:35;;;;;;;13.32;1.70;;;;;;;3.30;100.00;101736.13;5072965;28;20073;-74
2023/11/26 05:30:01;;;;;;;9.18;1.67;;;;;;;3.30;100.00;101733.47;5073076;28;20033;-73
2023/11/26 05:32:28;;;;;;;9.65;1.50;;;;;;;3.28;100.00;101726.56;5072975;28;20120;-74
2023/11/26 05:34:54;;;;;;;3.72;1.33;;;;;;;3.24;100.00;101727.63;5071711;28;20032;-74
2023/11/26 05:37:20;;;;;;;11.25;1.55;;;;;;;3.21;100.00;101730.41;5072733;28;20059;-73
2023/11/26 05:39:45;;;;;;;6.88;1.25;;;;;;;3.15;100.00;101726.28;5071599;28;20041;-74
2023/11/26 05:42:10;;;;;;;5.70;1.20;;;;;;;3.13;100.00;101728.13;5071924;28;20037;-73
2023/11/26 05:44:36;;;;;;;5.90;1.08;;;;;;;3.09;100.00;101719.53;5073095;28;20115;-75
2023/11/26 05:47:01;;;;;;;8.40;1.38;;;;;;;3.05;100.00;101725.00;5072861;28;20032;-74
2023/11/26 05:49:27;;;;;;;9.65;1.30;;;;;;;2.99;100.00;101718.25;5072814;28;20044;-73
2023/11/26 05:51:57;;;;;;;9.85;1.60;;;;;;;2.95;100.00;101714.88;5073100;28;20412;-73
2023/11/26 05:54:23;;;;;;;7.72;1.27;;;;;;;2.89;100.00;101719.56;5072770;28;20025;-73
2023/11/26 05:56:50;;;;;;;6.88;1.30;;;;;;;2.86;100.00;101719.69;5071800;28;20049;-73
2023/11/26 05:59:15;;;;;;;5.85;1.63;;;;;;;2.83;100.00;101718.91;5072339;28;20378;-73
2023/11/26 06:01:41;;;;;;;12.60;1.30;;;;;;;2.83;100.00;101716.28;5072654;28;20032;-73
2023/11/26 06:04:06;;;;;;;6.68;1.23;;;;;;;2.85;100.00;101726.72;5072951;28;20453;-73
2023/11/26 06:06:31;;;;;;;14.30;1.38;;;;;;;2.85;100.00;101713.56;5072616;28;20036;-74
2023/11/26 06:08:57;;;;;;;10.50;1.40;;;;;;;2.86;100.00;101715.28;5072384;28;20119;-73
2023/11/26 06:11:22;;;;;;;3.95;1.02;;;;;;;2.84;100.00;101717.16;5072582;28;20086;-72
2023/11/26 06:13:48;;;;;;;5.90;1.23;;;;;;;2.86;100.00;101717.06;5072219;28;20113;-72
2023/11/26 06:16:13;;;;;;;7.50;1.80;;;;;;;2.88;100.00;101717.84;5073012;28;20047;-73
2023/11/26 06:18:38;;;;;;;4.55;0.98;;;;;;;2.90;100.00;101727.38;5073708;28;20078;-75
2023/11/26 06:21:04;;;;;;;6.50;1.15;;;;;;;2.94;100.00;101725.47;5075829;28;20036;-74
2023/11/26 06:23:32;;;;;;;5.03;1.15;;;;;;;2.96;100.00;101727.09;5075049;28;20127;-75
2023/11/26 06:25:58;;;;;;;13.48;1.40;;;;;;;3.05;100.00;101736.38;5075753;28;20060;-74
2023/11/26 06:28:23;;;;;;;10.68;1.70;;;;;;;3.18;100.00;101739.31;5075716;28;20408;-74
2023/11/26 06:30:49;;;;;;;11.77;1.65;;;;;;;3.29;100.00;101738.81;5075930;28;20028;-74
2023/11/26 06:33:14;;;;;;;10.70;2.13;;;;;;;3.35;100.00;101735.91;5075956;28;20038;-73
2023/11/26 06:35:39;;;;;;;9.73;1.55;;;;;;;3.39;100.00;101736.59;5075678;28;20071;-73
2023/11/26 06:38:05;;;;;;;9.30;1.33;;;;;;;3.44;100.00;101739.88;5075875;28;20064;-73
2023/11/26 06:40:30;;;;;;;16.33;1.75;;;;;;;3.47;100.00;101737.97;5075837;28;20040;-79
2023/11/26 06:42:56;;;;;;;11.05;1.75;;;;;;;3.50;100.00;101732.56;5076000;28;20036;-72
2023/11/26 06:45:21;;;;;;;16.63;2.00;;;;;;;3.51;100.00;101726.38;5075415;28;20028;-74
2023/11/26 06:47:47;;;;;;;14.18;1.15;;;;;;;3.60;100.00;101734.75;5075811;28;20064;-73
2023/11/26 06:50:12;;;;;;;11.75;1.08;;;;;;;3.64;100.00;101736.31;5075544;28;20059;-73
2023/11/26 06:52:37;;;;;;;19.65;1.55;;;;;;;3.64;100.00;101720.53;5075396;28;20037;-73
2023/11/26 06:55:05;;;;;;;12.40;1.45;;;;;;;3.68;100.00;101732.63;5075175;28;20082;-74
2023/11/26 06:57:32;;;;;;;10.38;1.40;;;;;;;3.66;100.00;101721.31;5095752;28;20028;-73
2023/11/26 06:59:58;;;;;;;8.95;1.40;;;;;;;3.66;100.00;101729.22;5095800;28;20040;-74
2023/11/26 07:02:24;;;;;;;8.68;1.33;;;;;;;3.63;100.00;101726.72;5095651;28;20495;-73
2023/11/26 07:04:49;;;;;;;8.70;1.40;;;;;;;3.63;100.00;101729.38;5095454;28;20043;-73
2023/11/26 07:07:18;;;;;;;4.38;0.80;;;;;;;3.60;100.00;101733.00;5095531;28;20036;-72
2023/11/26 07:09:44;;;;;;;10.88;1.17;;;;;;;3.59;100.00;101735.69;5078110;28;20031;-73
2023/11/26 07:12:09;;;;;;;9.45;1.20;;;;;;;3.58;100.00;101729.56;5095381;28;20032;-73
2023/11/26 07:14:35;;;;;;;13.98;1.50;;;;;;;3.58;100.00;101724.28;5095182;28;20517;-73
2023/11/26 07:17:00;;;;;;;7.13;1.35;;;;;;;3.57;100.00;101727.88;5095261;28;20036;-73
2023/11/26 07:19:26;;;;;;;8.18;1.23;;;;;;;3.57;100.00;101721.72;5095308;28;20364;-74
2023/11/26 07:21:51;;;;;;;6.15;1.73;;;;;;;3.57;100.00;101724.38;5095116;28;20028;-74
2023/11/26 07:24:16;;;;;;;6.72;1.50;;;;;;;3.56;100.00;101726.16;5095406;28;20039;-73
2023/11/26 07:26:41;;;;;;;5.57;1.83;;;;;;;3.55;100.00;101726.22;5094975;28;20039;-74
2023/11/26 07:29:08;;;;;;;9.82;1.95;;;;;;;3.57;100.00;101729.63;5076683;28;20056;-73
2023/11/26 07:31:33;;;;;;;5.10;1.27;;;;;;;3.55;100.00;101723.59;5095693;28;20101;-73
2023/11/26 07:33:58;;;;;;;7.53;1.23;;;;;;;3.55;100.00;101723.59;5076626;28;20452;-73
2023/11/26 07:36:24;;;;;;;6.65;1.50;;;;;;;3.55;100.00;101728.84;5095379;28;20035;-73
2023/11/26 07:38:55;;;;;;;12.30;1.67;;;;;;;3.55;100.00;101726.22;5095290;28;20463;-74
2023/11/26 07:41:21;;;;;;;8.73;1.50;;;;;;;3.53;100.00;101726.28;5095149;28;20032;-72
2023/11/26 07:43:46;;;;;;;5.88;1.50;;;;;;;3.51;100.00;101730.78;5095215;28;20345;-73
2023/11/26 07:46:13;;;;;;;8.02;1.75;;;;;;;3.52;100.00;101720.19;5094804;28;20028;-73
2023/11/26 07:48:39;;;;;;;7.55;1.90;;;;;;;3.56;100.00;101734.06;5094988;28;20067;-73
2023/11/26 07:51:05;;;;;;;12.07;2.13;;;;;;;3.59;100.00;101727.78;5094867;28;20092;-73
2023/11/26 07:53:32;;;;;;;7.60;2.00;;;;;;;3.62;100.00;101728.50;5094611;28;20032;-74
2023/11/26 07:56:00;;;;;;;7.85;2.25;;;;;;;3.69;100.00;101729.91;5094388;28;20051;-73
2023/11/26 07:58:27;;;;;;;4.97;1.80;;;;;;;3.75;100.00;101741.94;5094678;28;20043;-73
2023/11/26 08:00:53;;;;;;;4.40;2.00;;;;;;;3.80;100.00;101739.94;5094361;28;20040;-74
2023/11/26 08:03:18;;;;;;;13.73;2.25;;;;;;;3.85;100.00;101740.56;5094133;28;20038;-74
2023/11/26 08:05:44;;;;;;;8.45;1.88;;;;;;;3.93;100.00;101739.34;5094858;28;20073;-74
2023/11/26 08:08:10;;;;;;;12.88;1.92;;;;;;;4.00;100.00;101744.25;5094576;28;20031;-73
2023/11/26 08:10:35;;;;;;;12.45;1.85;;;;;;;4.10;100.00;101743.81;5076082;28;20109;-73
2023/11/26 08:13:01;;;;;;;7.68;1.50;;;;;;;4.16;100.00;101744.34;5094067;28;20124;-73
2023/11/26 08:15:28;;;;;;;10.82;1.50;;;;;;;4.20;100.00;101745.91;5093651;28;20020;-75
2023/11/26 08:17:55;;;;;;;9.02;1.58;;;;;;;4.26;100.00;101752.66;5076348;28;20036;-74
2023/11/26 08:20:21;;;;;;;9.55;1.13;;;;;;;4.26;100.00;101741.28;5094165;28;20028;-74
2023/11/26 08:22:47;;;;;;;4.95;1.48;;;;;;;4.28;100.00;101740.25;5094085;28;20024;-75
2023/11/26 08:25:17;;;;;;;7.78;1.50;;;;;;;4.32;100.00;101740.97;5094731;28;20036;-73
2023/11/26 08:27:45;;;;;;;13.60;1.30;;;;;;;4.35;100.00;101736.38;5094580;28;20027;-74
2023/11/26 08:30:30;;;;;;;9.70;1.63;;;;;;;4.40;100.00;101736.16;5075769;28;20091;-73
2023/11/26 08:33:00;;;;;;;6.53;1.08;;;;;;;4.45;100.00;101733.28;5094122;28;20441;-73
2023/11/26 08:35:29;;;;;;;7.40;1.30;;;;;;;4.50;100.00;101736.56;5093867;28;20111;-73
2023/11/26 08:37:56;;;;;;;8.02;1.40;;;;;;;4.56;100.00;101730.97;5094055;28;20032;-74
2023/11/26 08:40:33;;;;;;;9.07;2.10;;;;;;;4.63;100.00;101726.22;5093956;28;20077;-73
2023/11/26 08:43:02;;;;;;;11.35;1.60;;;;;;;4.69;100.00;101726.75;5093774;28;20433;-74
2023/11/26 08:45:28;;;;;;;6.65;1.80;;;;;;;4.76;100.00;101727.28;5093765;28;20036;-74
2023/11/26 08:47:55;;;;;;;13.40;1.73;;;;;;;4.80;100.00;101730.63;5075491;28;20065;-74
2023/11/26 08:50:21;;;;;;;8.93;2.03;;;;;;;4.83;100.00;101726.03;5093672;28;20115;-74
2023/11/26 08:52:46;;;;;;;7.15;1.55;;;;;;;4.86;100.00;101728.50;5093686;28;20476;-74
2023/11/26 08:55:11;;;;;;;7.82;1.40;;;;;;;4.89;100.00;101727.50;5092979;28;20043;-73
2023/11/26 08:57:40;;;;;;;8.32;1.50;;;;;;;4.94;100.00;101728.09;5093936;28;20048;-74
2023/11/26 09:00:09;;;;;;;6.97;1.30;;;;;;;5.00;100.00;101729.56;5093967;28;20048;-73
2023/11/26 09:02:40;;;;;;;4.93;1.45;;;;;;;5.05;100.00;101732.84;5093844;28;20406;-74
2023/11/26 09:05:08;;;;;;;9.63;2.08;;;;;;;5.11;100.00;101732.50;5094026;28;20456;-73
2023/11/26 09:07:35;;;;;;;8.82;1.33;;;;;;;5.17;100.00;101726.06;5093354;28;20480;-74
2023/11/26 09:10:01;;;;;;;10.13;1.80;;;;;;;5.21;100.00;101723.16;5093014;28;20040;-73
2023/11/26 09:12:27;;;;;;;6.82;1.60;;;;;;;5.26;100.00;101720.28;5093960;28;20090;-73
2023/11/26 09:14:53;;;;;;;10.20;2.10;;;;;;;5.29;100.00;101722.75;5075198;28;20430;-74
2023/11/26 09:17:20;;;;;;;13.98;1.98;;;;;;;5.34;100.00;101725.97;5075443;28;20061;-74
2023/11/26 09:19:45;;;;;;;8.95;2.30;;;;;;;5.41;100.00;101719.44;5093302;28;20036;-73
2023/11/26 09:22:11;;;;;;;12.27;2.00;;;;;;;5.51;100.00;101724.19;5092922;28;20031;-74
2023/11/26 09:24:37;;;;;;;10.60;2.30;;;;;;;5.59;100.00;101720.19;5093323;28;20036;-72
2023/11/26 09:27:03;;;;;;;10.05;2.05;;;;;;;5.67;100.00;101722.41;5092884;28;20028;-73
2023/11/26 09:29:28;;;;;;;4.43;2.03;;;;;;;5.72;100.00;101714.22;5093104;28;20036;-72
2023/11/26 09:31:53;;;;;;;15.60;2.72;;;;;;;5.74;100.00;101720.28;5093133;28;20032;-73
2023/11/26 09:34:19;;;;;;;8.70;2.58;;;;;;;5.79;100.00;101715.59;5093332;28;20036;-74
2023/11/26 09:36:45;;;;;;;18.25;4.35;;;;;;;5.79;100.00;101713.81;5092565;28;20060;-74
2023/11/26 09:39:15;;;;;;;16.20;3.88;;;;;;;5.76;100.00;101715.78;5093251;28;20032;-73
2023/11/26 09:41:41;;;;;;;21.92;4.00;;;;;;;5.75;100.00;101722.00;5092761;28;20107;-74
2023/11/26 09:44:07;;;;;;;17.65;2.45;;;;;;;5.72;100.00;101716.88;5092774;28;20079;-74
2023/11/26 09:46:34;;;;;;;7.65;1.50;;;;;;;5.69;100.00;101724.97;5092680;28;20032;-74
2023/11/26 09:49:00;;;;;;;11.18;2.10;;;;;;;5.63;100.00;101716.47;5093332;28;20388;-72
2023/11/26 09:51:27;;;;;;;7.57;1.65;;;;;;;5.64;100.00;101722.59;5092386;28;20039;-72
2023/11/26 09:53:53;;;;;;;5.60;1.50;;;;;;;5.64;100.00;101715.53;5094932;28;20028;-73
2023/11/26 09:56:18;;;;;;;11.68;2.25;;;;;;;5.68;100.00;101720.66;5096499;28;20404;-74
2023/11/26 09:58:43;;;;;;;6.57;1.30;;;;;;;5.70;100.00;101727.53;5096444;28;20472;-73
2023/11/26 10:01:10;;;;;;;5.22;1.55;;;;;;;5.67;100.00;101730.34;5096361;28;20035;-75
2023/11/26 10:03:58;;;;;;;8.40;1.33;;;;;;;5.66;100.00;101723.38;5096962;28;20120;-74
2023/11/26 10:06:25;;;;;;;12.27;2.13;;;;;;;5.62;100.00;101730.59;5096458;28;20036;-73
2023/11/26 10:08:50;;;;;;;8.52;1.30;;;;;;;5.59;100.00;101722.84;5097046;28;20043;-73
2023/11/26 10:11:24;;;;;;;9.80;1.70;;;;;;;5.60;100.00;101726.34;5078602;28;20028;-73
2023/11/26 10:13:50;;;;;;;3.50;1.20;;;;;;;5.57;100.00;101724.72;5078865;28;20399;-73
2023/11/26 10:16:37;;;;;;;12.02;1.60;;;;;;;5.61;100.00;101714.84;5097121;28;20036;-74
2023/11/26 10:19:03;;;;;;;7.85;1.70;;;;;;;5.64;100.00;101725.22;5096444;28;20081;-73
2023/11/26 10:21:30;;;;;;;7.88;1.75;;;;;;;5.66;100.00;101718.09;5096860;28;20028;-73
2023/11/26 10:23:55;;;;;;;9.73;1.50;;;;;;;5.65;100.00;101719.03;5096359;28;20479;-73
2023/11/26 10:26:26;;;;;;;13.40;1.60;;;;;;;5.65;100.00;101714.56;5077831;28;20111;-73
2023/11/26 10:29:08;;;;;;;4.75;1.10;;;;;;;5.64;100.00;101723.47;5096205;28;20072;-73
2023/11/26 10:31:38;;;;;;;7.40;1.10;;;;;;;5.57;100.00;101706.25;5077927;28;20158;-73
2023/11/26 10:34:13;;;;;;;7.03;0.98;;;;;;;5.56;100.00;101704.53;5096040;28;20032;-73
2023/11/26 10:36:38;;;;;;;10.90;1.77;;;;;;;5.56;100.00;101693.13;5096458;28;20032;-73
2023/11/26 10:39:04;;;;;;;7.05;1.10;;;;;;;5.63;100.00;101702.44;5095874;28;20464;-74
2023/11/26 10:41:34;;;;;;;10.55;1.42;;;;;;;5.73;100.00;101689.53;5095939;28;20032;-74
2023/11/26 10:44:01;;;;;;;4.28;1.00;;;;;;;5.83;100.00;101693.38;5095923;28;20040;-72
2023/11/26 10:46:26;;;;;;;5.22;1.50;;;;;;;5.93;100.00;101689.25;5095592;28;20123;-73
2023/11/26 10:49:01;;;;;;;8.77;1.88;;;;;;;6.03;100.00;101686.97;5095813;28;20123;-73
2023/11/26 10:51:28;;;;;;;5.95;1.70;;;;;;;6.08;100.00;101687.56;5077999;28;20032;-73
2023/11/26 10:54:14;;;;;;;5.38;1.40;;;;;;;6.17;100.00;101688.81;5095099;28;20119;-73
2023/11/26 10:56:41;;;;;;;7.75;1.40;;;;;;;6.16;100.00;101695.03;5095423;28;20052;-73
2023/11/26 10:59:18;;;;;;;3.53;1.15;;;;;;;6.16;100.00;101687.09;5095232;28;20115;-73
2023/11/26 11:01:44;;;;;;;6.53;1.27;;;;;;;6.18;100.00;101685.25;5096133;28;20029;-73
2023/11/26 11:04:14;;;;;;;5.55;1.33;;;;;;;6.21;100.00;101679.78;5095173;28;20036;-73
2023/11/26 11:06:40;;;;;;;6.45;1.67;;;;;;;6.23;100.00;101682.31;5095417;28;20036;-73
2023/11/26 11:09:12;;;;;;;6.35;1.52;;;;;;;6.19;100.00;101686.91;5095332;28;20032;-73
2023/11/26 11:12:04;;;;;;;7.63;1.50;;;;;;;6.13;100.00;101680.19;5095512;28;20357;-74
2023/11/26 11:14:31;;;;;;;10.82;1.55;;;;;;;6.10;100.00;101679.53;5095253;28;20464;-74
2023/11/26 11:16:56;;;;;;;4.68;1.20;;;;;;;6.05;100.00;101674.53;5076957;28;20384;-74
2023/11/26 11:19:50;;;;;;;6.25;1.27;;;;;;;6.03;100.00;101675.53;5095112;28;20028;-74
2023/11/26 11:22:16;;;;;;;15.88;2.17;;;;;;;5.94;100.00;101671.59;5095774;28;20020;-73